createdAt,value
2022-10-01T00:00:48.795Z,16.13
2022-10-01T00:03:15.390Z,16.12
2022-10-01T00:05:42.038Z,16.09
2022-10-01T00:08:08.612Z,16.06
2022-10-01T00:10:36.886Z,16.00
2022-10-01T00:13:03.703Z,15.97
2022-10-01T00:15:30.279Z,15.95
2022-10-01T00:17:56.922Z,15.90
2022-10-01T00:20:23.638Z,15.89
2022-10-01T00:22:50.202Z,15.85
2022-10-01T00:25:16.849Z,15.87
2022-10-01T00:27:46.402Z,15.86
2022-10-01T00:30:13.168Z,15.85
2022-10-01T00:32:41.243Z,15.85
2022-10-01T00:35:12.395Z,15.86
2022-10-01T00:37:39.107Z,15.86
2022-10-01T00:40:06.491Z,15.82
2022-10-01T00:42:33.677Z,15.79
2022-10-01T00:45:02.283Z,15.81
2022-10-01T00:47:43.342Z,15.79
2022-10-01T00:50:29.054Z,15.75
2022-10-01T00:52:59.651Z,15.72
2022-10-01T00:55:31.468Z,15.68
2022-10-01T00:57:58.741Z,15.69
2022-10-01T01:00:25.397Z,15.70
2022-10-01T01:02:51.946Z,15.65
2022-10-01T01:05:19.485Z,15.66
2022-10-01T01:07:49.018Z,15.65
2022-10-01T01:10:25.572Z,15.63
2022-10-01T01:13:19.824Z,15.66
2022-10-01T01:15:49.416Z,15.65
2022-10-01T01:18:35.361Z,15.59
2022-10-01T01:21:10.729Z,15.61
2022-10-01T01:23:55.555Z,15.59
2022-10-01T01:26:54.602Z,15.55
2022-10-01T01:29:27.418Z,15.58
2022-10-01T01:32:02.223Z,15.54
2022-10-01T01:34:31.661Z,15.54
2022-10-01T01:37:04.988Z,15.54
2022-10-01T01:39:33.467Z,15.51
2022-10-01T01:42:06.370Z,15.52
2022-10-01T01:44:40.196Z,15.52
2022-10-01T01:47:10.589Z,15.52
2022-10-01T01:49:39.505Z,15.52
2022-10-01T01:52:15.158Z,15.49
2022-10-01T01:54:44.460Z,15.49
2022-10-01T01:57:13.250Z,15.48
2022-10-01T01:59:41.063Z,15.48
2022-10-01T02:02:13.571Z,15.47
2022-10-01T02:04:43.140Z,15.47
2022-10-01T02:07:26.218Z,15.47
2022-10-01T02:10:19.035Z,15.40
2022-10-01T02:12:45.558Z,15.37
2022-10-01T02:15:18.341Z,15.37
2022-10-01T02:17:50.596Z,15.37
2022-10-01T02:20:43.865Z,15.32
2022-10-01T02:23:15.802Z,15.34
2022-10-01T02:25:48.936Z,15.34
2022-10-01T02:28:23.326Z,15.31
2022-10-01T02:30:53.402Z,15.31
2022-10-01T02:33:29.489Z,15.31
2022-10-01T02:35:58.011Z,15.28
2022-10-01T02:38:26.145Z,15.28
2022-10-01T02:40:56.357Z,15.26
2022-10-01T02:43:32.647Z,15.26
2022-10-01T02:46:11.955Z,15.26
2022-10-01T02:48:38.703Z,15.24
2022-10-01T02:51:21.328Z,15.24
2022-10-01T02:53:55.638Z,15.26
2022-10-01T02:56:48.584Z,15.24
2022-10-01T02:59:15.495Z,15.24
2022-10-01T03:01:42.137Z,15.27
2022-10-01T03:04:08.702Z,15.27
2022-10-01T03:06:35.912Z,15.30
2022-10-01T03:09:02.713Z,15.31
2022-10-01T03:11:29.558Z,15.37
2022-10-01T03:13:56.151Z,15.40
2022-10-01T03:16:22.792Z,15.42
2022-10-01T03:18:49.433Z,15.44
2022-10-01T03:21:16.028Z,15.44
2022-10-01T03:23:42.611Z,15.44
2022-10-01T03:26:09.146Z,15.47
2022-10-01T03:28:35.741Z,15.49
2022-10-01T03:31:07.610Z,15.48
2022-10-01T03:33:35.352Z,15.45
2022-10-01T03:36:03.367Z,15.42
2022-10-01T03:38:30.341Z,15.42
2022-10-01T03:40:56.984Z,15.44
2022-10-01T03:43:23.551Z,15.42
2022-10-01T03:45:50.146Z,15.45
2022-10-01T03:48:18.334Z,15.47
2022-10-01T03:50:53.739Z,15.51
2022-10-01T03:53:20.604Z,15.52
2022-10-01T03:55:47.466Z,15.54
2022-10-01T03:58:14.003Z,15.54
2022-10-01T04:00:41.137Z,15.52
2022-10-01T04:03:07.793Z,15.52
2022-10-01T04:05:34.410Z,15.58
2022-10-01T04:08:01.276Z,15.55
2022-10-01T04:10:27.819Z,15.55
2022-10-01T04:12:55.668Z,15.54
2022-10-01T04:15:23.091Z,15.57
2022-10-01T04:17:49.642Z,15.59
2022-10-01T04:20:16.292Z,15.59
2022-10-01T04:22:43.263Z,15.62
2022-10-01T04:25:10.963Z,15.62
2022-10-01T04:27:39.233Z,15.61
2022-10-01T04:30:08.184Z,15.59
2022-10-01T04:32:35.175Z,15.61
2022-10-01T04:35:04.323Z,15.59
2022-10-01T04:37:31.257Z,15.62
2022-10-01T04:39:57.828Z,15.59
2022-10-01T04:42:24.397Z,15.57
2022-10-01T04:44:50.948Z,15.55
2022-10-01T04:47:17.539Z,15.58
2022-10-01T04:49:44.101Z,15.59
2022-10-01T04:52:10.683Z,15.57
2022-10-01T04:54:37.223Z,15.57
2022-10-01T04:57:03.930Z,15.58
2022-10-01T04:59:31.971Z,15.54
2022-10-01T05:01:58.606Z,15.54
2022-10-01T05:04:25.295Z,15.52
2022-10-01T05:06:52.194Z,15.52
2022-10-01T05:09:18.761Z,15.48
2022-10-01T05:11:45.631Z,15.45
2022-10-01T05:14:12.332Z,15.42
2022-10-01T05:16:38.956Z,15.44
2022-10-01T05:19:05.535Z,15.45
2022-10-01T05:21:32.433Z,15.42
2022-10-01T05:23:59.167Z,15.42
2022-10-01T05:26:25.885Z,15.44
2022-10-01T05:28:54.102Z,15.42
2022-10-01T05:31:20.763Z,15.42
2022-10-01T05:33:47.404Z,15.44
2022-10-01T05:36:13.943Z,15.44
2022-10-01T05:38:42.354Z,15.44
2022-10-01T05:41:09.046Z,15.44
2022-10-01T05:43:36.352Z,15.42
2022-10-01T05:46:05.423Z,15.44
2022-10-01T05:48:34.633Z,15.45
2022-10-01T05:51:01.234Z,15.45
2022-10-01T05:53:27.930Z,15.44
2022-10-01T05:55:54.537Z,15.45
2022-10-01T05:58:21.973Z,15.49
2022-10-01T06:00:48.547Z,15.51
2022-10-01T06:03:15.372Z,15.54
2022-10-01T06:05:44.260Z,15.57
2022-10-01T06:08:10.838Z,15.57
2022-10-01T06:10:37.976Z,15.58
2022-10-01T06:13:07.871Z,15.59
2022-10-01T06:15:37.913Z,15.59
2022-10-01T06:18:09.603Z,15.63
2022-10-01T06:20:36.852Z,15.61
2022-10-01T06:23:09.279Z,15.63
2022-10-01T06:25:38.330Z,15.63
2022-10-01T06:28:06.959Z,15.63
2022-10-01T06:30:36.904Z,15.63
2022-10-01T06:33:09.890Z,15.65
2022-10-01T06:35:41.012Z,15.66
2022-10-01T06:38:09.431Z,15.68
2022-10-01T06:40:37.160Z,15.68
2022-10-01T06:43:04.236Z,15.70
2022-10-01T06:45:31.348Z,15.72
2022-10-01T06:48:02.738Z,15.75
2022-10-01T06:50:31.221Z,15.73
2022-10-01T06:52:58.407Z,15.76
2022-10-01T06:55:31.217Z,15.78
2022-10-01T06:58:02.166Z,15.79
2022-10-01T07:00:30.897Z,15.83
2022-10-01T07:02:57.870Z,15.87
2022-10-01T07:05:25.639Z,15.90
2022-10-01T07:07:53.656Z,15.93
2022-10-01T07:10:21.738Z,15.96
2022-10-01T07:12:49.422Z,15.97
2022-10-01T07:15:17.706Z,16.00
2022-10-01T07:17:46.711Z,16.03
2022-10-01T07:20:14.900Z,16.10
2022-10-01T07:22:41.686Z,16.24
2022-10-01T07:25:08.604Z,16.40
2022-10-01T07:27:35.302Z,16.44
2022-10-01T07:30:02.039Z,16.55
2022-10-01T07:32:31.630Z,16.75
2022-10-01T07:34:58.398Z,16.98
2022-10-01T07:37:25.209Z,17.16
2022-10-01T07:39:51.765Z,17.33
2022-10-01T07:42:19.790Z,17.38
2022-10-01T07:44:46.387Z,17.44
2022-10-01T07:47:12.953Z,17.45
2022-10-01T07:49:40.015Z,17.44
2022-10-01T07:52:10.943Z,17.41
2022-10-01T07:54:39.658Z,17.34
2022-10-01T07:57:06.512Z,17.33
2022-10-01T07:59:33.302Z,17.33
2022-10-01T08:02:01.077Z,17.36
2022-10-01T08:04:46.379Z,17.40
2022-10-01T08:07:13.042Z,17.41
2022-10-01T08:09:40.139Z,17.41
2022-10-01T08:12:06.731Z,17.45
2022-10-01T08:14:33.329Z,17.45
2022-10-01T08:16:59.983Z,17.53
2022-10-01T08:19:26.718Z,17.61
2022-10-01T08:21:53.330Z,17.70
2022-10-01T08:24:20.243Z,17.77
2022-10-01T08:26:53.328Z,17.85
2022-10-01T08:29:20.442Z,17.93
2022-10-01T08:31:47.260Z,18.03
2022-10-01T08:34:14.789Z,18.14
2022-10-01T08:36:41.361Z,18.25
2022-10-01T08:39:08.259Z,18.29
2022-10-01T08:42:00.127Z,18.33
2022-10-01T08:44:36.698Z,18.36
2022-10-01T08:47:32.196Z,18.37
2022-10-01T08:50:03.504Z,18.40
2022-10-01T08:52:33.697Z,18.43
2022-10-01T08:55:14.018Z,18.53
2022-10-01T08:57:47.112Z,18.60
2022-10-01T09:00:17.558Z,18.65
2022-10-01T09:02:46.746Z,18.64
2022-10-01T09:05:29.351Z,18.71
2022-10-01T09:08:43.639Z,18.76
2022-10-01T09:11:24.923Z,18.88
2022-10-01T09:14:14.065Z,19.05
2022-10-01T09:16:43.462Z,19.27
2022-10-01T09:19:25.338Z,19.50
2022-10-01T09:21:59.912Z,19.64
2022-10-01T09:24:38.287Z,19.66
2022-10-01T09:27:19.398Z,19.68
2022-10-01T09:29:57.936Z,19.66
2022-10-01T09:32:28.541Z,19.66
2022-10-01T09:34:55.234Z,19.66
2022-10-01T09:37:43.357Z,19.66
2022-10-01T09:40:14.948Z,19.67
2022-10-01T09:42:42.792Z,19.67
2022-10-01T09:45:15.081Z,19.73
2022-10-01T09:47:45.430Z,19.77
2022-10-01T09:50:16.976Z,19.84
2022-10-01T09:52:48.764Z,19.95
2022-10-01T09:55:18.416Z,20.13
2022-10-01T09:57:59.942Z,20.28
2022-10-01T10:00:27.798Z,20.32
2022-10-01T10:02:55.216Z,20.40
2022-10-01T10:05:25.904Z,20.47
2022-10-01T10:07:59.387Z,20.54
2022-10-01T10:10:35.630Z,20.61
2022-10-01T10:13:14.779Z,20.64
2022-10-01T10:15:52.594Z,20.68
2022-10-01T10:18:31.187Z,20.71
2022-10-01T10:21:01.605Z,20.71
2022-10-01T10:23:31.486Z,20.74
2022-10-01T10:26:03.871Z,20.74
2022-10-01T10:28:43.807Z,20.71
2022-10-01T10:31:19.172Z,20.71
2022-10-01T10:33:51.183Z,20.78
2022-10-01T10:36:19.744Z,20.87
2022-10-01T10:38:53.559Z,21.08
2022-10-01T10:41:26.469Z,21.25
2022-10-01T10:44:03.783Z,21.31
2022-10-01T10:46:36.846Z,21.32
2022-10-01T10:49:15.808Z,21.28
2022-10-01T10:51:48.753Z,21.26
2022-10-01T10:54:21.060Z,21.26
2022-10-01T10:57:16.400Z,21.24
2022-10-01T10:59:54.685Z,21.19
2022-10-01T11:02:23.814Z,21.16
2022-10-01T11:04:51.005Z,21.21
2022-10-01T11:07:23.309Z,21.29
2022-10-01T11:10:24.633Z,21.50
2022-10-01T11:13:34.203Z,21.71
2022-10-01T11:16:29.599Z,21.94
2022-10-01T11:19:01.308Z,22.05
2022-10-01T11:21:58.173Z,22.04
2022-10-01T11:24:59.424Z,22.14
2022-10-01T11:28:09.743Z,22.25
2022-10-01T11:30:36.283Z,22.34
2022-10-01T11:33:21.108Z,22.42
2022-10-01T11:36:03.026Z,22.48
2022-10-01T11:38:51.170Z,22.49
2022-10-01T11:41:26.857Z,22.48
2022-10-01T11:43:57.867Z,22.51
2022-10-01T11:46:31.213Z,22.55
2022-10-01T11:49:02.628Z,22.66
2022-10-01T11:51:43.531Z,22.73
2022-10-01T11:54:16.307Z,22.76
2022-10-01T11:57:15.421Z,22.79
2022-10-01T12:00:05.780Z,22.79
2022-10-01T12:02:42.856Z,22.81
2022-10-01T12:05:17.100Z,22.80
2022-10-01T12:07:54.232Z,22.81
2022-10-01T12:10:21.772Z,22.81
2022-10-01T12:12:51.049Z,22.80
2022-10-01T12:15:23.601Z,22.74
2022-10-01T12:17:55.553Z,22.77
2022-10-01T12:20:34.231Z,22.81
2022-10-01T12:23:04.451Z,22.83
2022-10-01T12:26:02.560Z,22.86
2022-10-01T12:28:38.515Z,22.89
2022-10-01T12:31:44.694Z,22.84
2022-10-01T12:34:22.538Z,22.79
2022-10-01T12:36:57.244Z,22.76
2022-10-01T12:39:48.932Z,22.72
2022-10-01T12:42:45.244Z,22.70
2022-10-01T12:45:43.243Z,22.73
2022-10-01T12:48:15.782Z,22.74
2022-10-01T12:50:48.353Z,22.74
2022-10-01T12:53:30.141Z,22.79
2022-10-01T12:56:34.024Z,22.86
2022-10-01T12:59:18.897Z,22.91
2022-10-01T13:02:31.217Z,22.97
2022-10-01T13:05:12.747Z,22.96
2022-10-01T13:08:01.044Z,22.96
2022-10-01T13:10:45.750Z,22.94
2022-10-01T13:13:17.942Z,22.90
2022-10-01T13:15:50.198Z,22.87
2022-10-01T13:18:47.861Z,22.84
2022-10-01T13:21:26.275Z,22.80
2022-10-01T13:23:59.056Z,22.84
2022-10-01T13:26:43.344Z,22.81
2022-10-01T13:29:33.006Z,22.80
2022-10-01T13:32:04.807Z,22.79
2022-10-01T13:34:40.444Z,22.79
2022-10-01T13:37:38.061Z,22.74
2022-10-01T13:40:22.507Z,22.74
2022-10-01T13:42:51.266Z,22.73
2022-10-01T13:45:22.812Z,22.74
2022-10-01T13:47:49.722Z,22.74
2022-10-01T13:50:24.012Z,22.73
2022-10-01T13:53:18.045Z,22.76
2022-10-01T13:55:46.790Z,22.74
2022-10-01T13:58:34.879Z,22.79
2022-10-01T14:01:04.208Z,22.79
2022-10-01T14:03:37.947Z,22.80
2022-10-01T14:06:14.146Z,22.80
2022-10-01T14:09:11.632Z,22.81
2022-10-01T14:12:00.992Z,22.86
2022-10-01T14:14:56.133Z,22.90
2022-10-01T14:17:26.768Z,22.94
2022-10-01T14:19:54.571Z,23.00
2022-10-01T14:22:45.961Z,23.01
2022-10-01T14:25:35.909Z,23.07
2022-10-01T14:28:42.078Z,23.10
2022-10-01T14:31:17.450Z,23.12
2022-10-01T14:34:05.051Z,23.17
2022-10-01T14:36:35.552Z,23.18
2022-10-01T14:39:17.608Z,23.19
2022-10-01T14:41:45.907Z,23.18
2022-10-01T14:44:30.085Z,23.15
2022-10-01T14:46:59.378Z,23.10
2022-10-01T14:49:27.174Z,23.10
2022-10-01T14:51:59.775Z,23.07
2022-10-01T14:54:27.475Z,23.10
2022-10-01T14:56:55.354Z,23.14
2022-10-01T14:59:28.153Z,23.18
2022-10-01T15:01:58.457Z,23.19
2022-10-01T15:04:25.295Z,23.18
2022-10-01T15:06:52.061Z,23.14
2022-10-01T15:09:20.544Z,23.07
2022-10-01T15:11:50.152Z,23.07
2022-10-01T15:14:23.950Z,23.00
2022-10-01T15:16:53.804Z,22.96
2022-10-01T15:19:23.038Z,22.91
2022-10-01T15:21:49.819Z,22.91
2022-10-01T15:24:24.049Z,22.87
2022-10-01T15:26:52.172Z,22.83
2022-10-01T15:29:18.908Z,22.79
2022-10-01T15:31:46.978Z,22.76
2022-10-01T15:34:16.471Z,22.81
2022-10-01T15:36:44.186Z,22.81
2022-10-01T15:39:29.934Z,22.86
2022-10-01T15:41:57.571Z,22.87
2022-10-01T15:44:46.458Z,22.91
2022-10-01T15:47:35.593Z,22.93
2022-10-01T15:50:03.888Z,22.97
2022-10-01T15:52:53.412Z,22.97
2022-10-01T15:55:30.237Z,22.99
2022-10-01T15:58:15.158Z,22.97
2022-10-01T16:00:47.744Z,22.93
2022-10-01T16:03:24.961Z,22.93
2022-10-01T16:05:55.032Z,22.89
2022-10-01T16:08:25.623Z,22.86
2022-10-01T16:11:17.615Z,22.80
2022-10-01T16:13:52.702Z,22.80
2022-10-01T16:16:26.204Z,22.74
2022-10-01T16:18:59.430Z,22.72
2022-10-01T16:21:26.831Z,22.70
2022-10-01T16:23:55.700Z,22.67
2022-10-01T16:26:28.323Z,22.67
2022-10-01T16:28:57.405Z,22.67
2022-10-01T16:31:25.443Z,22.64
2022-10-01T16:33:52.359Z,22.64
2022-10-01T16:36:20.789Z,22.62
2022-10-01T16:38:48.302Z,22.63
2022-10-01T16:41:22.193Z,22.63
2022-10-01T16:43:50.648Z,22.60
2022-10-01T16:46:17.629Z,22.64
2022-10-01T16:48:47.398Z,22.64
2022-10-01T16:51:13.969Z,22.64
2022-10-01T16:53:42.906Z,22.63
2022-10-01T16:56:13.649Z,22.59
2022-10-01T16:58:41.821Z,22.56
2022-10-01T17:01:10.284Z,22.57
2022-10-01T17:03:36.866Z,22.52
2022-10-01T17:06:03.814Z,22.46
2022-10-01T17:08:30.585Z,22.48
2022-10-01T17:11:00.537Z,22.38
2022-10-01T17:13:38.081Z,22.35
2022-10-01T17:16:05.904Z,22.34
2022-10-01T17:18:32.754Z,22.28
2022-10-01T17:21:01.818Z,22.21
2022-10-01T17:23:28.402Z,22.22
2022-10-01T17:25:54.934Z,22.17
2022-10-01T17:28:21.902Z,22.15
2022-10-01T17:30:49.645Z,22.12
2022-10-01T17:33:19.386Z,22.07
2022-10-01T17:35:51.682Z,22.04
2022-10-01T17:38:19.507Z,22.01
2022-10-01T17:40:46.321Z,21.98
2022-10-01T17:43:14.730Z,21.91
2022-10-01T17:45:42.316Z,21.90
2022-10-01T17:48:09.606Z,21.86
2022-10-01T17:50:43.814Z,21.86
2022-10-01T17:53:12.172Z,21.86
2022-10-01T17:55:42.780Z,21.81
2022-10-01T17:58:10.346Z,21.77
2022-10-01T18:00:37.043Z,21.76
2022-10-01T18:03:03.931Z,21.74
2022-10-01T18:05:30.699Z,21.69
2022-10-01T18:07:57.319Z,21.64
2022-10-01T18:10:23.964Z,21.60
2022-10-01T18:12:50.604Z,21.60
2022-10-01T18:15:20.333Z,21.57
2022-10-01T18:17:51.391Z,21.53
2022-10-01T18:20:20.693Z,21.52
2022-10-01T18:22:47.533Z,21.50
2022-10-01T18:25:16.097Z,21.46
2022-10-01T18:27:43.645Z,21.46
2022-10-01T18:30:10.648Z,21.46
2022-10-01T18:32:43.401Z,21.46
2022-10-01T18:35:27.040Z,21.45
2022-10-01T18:37:58.439Z,21.45
2022-10-01T18:40:32.373Z,21.43
2022-10-01T18:43:07.908Z,21.41
2022-10-01T18:45:49.527Z,21.41
2022-10-01T18:48:47.564Z,21.42
2022-10-01T18:51:52.187Z,21.39
2022-10-01T18:54:52.657Z,21.31
2022-10-01T18:57:58.313Z,21.26
2022-10-01T19:00:27.437Z,21.26
2022-10-01T19:03:20.349Z,21.25
2022-10-01T19:05:49.941Z,21.21
2022-10-01T19:08:41.185Z,21.21
2022-10-01T19:11:24.720Z,21.19
2022-10-01T19:13:56.915Z,21.18
2022-10-01T19:16:32.991Z,21.14
2022-10-01T19:19:02.940Z,21.14
2022-10-01T19:21:45.186Z,21.12
2022-10-01T19:24:16.932Z,21.11
2022-10-01T19:26:59.598Z,21.08
2022-10-01T19:30:01.018Z,21.06
2022-10-01T19:32:44.206Z,21.05
2022-10-01T19:35:23.253Z,21.01
2022-10-01T19:37:58.059Z,20.99
2022-10-01T19:40:49.727Z,20.98
2022-10-01T19:43:31.876Z,20.97
2022-10-01T19:46:13.048Z,20.94
2022-10-01T19:49:08.623Z,20.90
2022-10-01T19:51:39.419Z,20.87
2022-10-01T19:54:15.597Z,20.85
2022-10-01T19:56:46.062Z,20.84
2022-10-01T19:59:19.855Z,20.81
2022-10-01T20:01:49.153Z,20.78
2022-10-01T20:04:26.578Z,20.76
2022-10-01T20:07:00.101Z,20.70
2022-10-01T20:10:05.484Z,20.70
2022-10-01T20:13:10.068Z,20.66
2022-10-01T20:15:53.422Z,20.63
2022-10-01T20:18:54.639Z,20.60
2022-10-01T20:22:11.965Z,20.57
2022-10-01T20:25:14.397Z,20.51
2022-10-01T20:28:08.446Z,20.50
2022-10-01T20:30:48.859Z,20.47
2022-10-01T20:33:34.939Z,20.47
2022-10-01T20:36:34.905Z,20.43
2022-10-01T20:39:27.809Z,20.43
2022-10-01T20:41:54.938Z,20.40
2022-10-01T20:44:27.228Z,20.34
2022-10-01T20:47:00.124Z,20.32
2022-10-01T20:49:50.972Z,20.33
2022-10-01T20:52:17.489Z,20.29
2022-10-01T20:54:47.768Z,20.26
2022-10-01T20:57:33.881Z,20.29
2022-10-01T21:00:28.357Z,20.26
2022-10-01T21:03:13.511Z,20.22
2022-10-01T21:05:46.432Z,20.19
2022-10-01T21:08:28.205Z,20.16
2022-10-01T21:10:59.632Z,20.16
2022-10-01T21:14:04.829Z,20.13
2022-10-01T21:16:41.375Z,20.13
2022-10-01T21:19:50.036Z,20.12
2022-10-01T21:22:34.552Z,20.05
2022-10-01T21:25:13.711Z,20.05
2022-10-01T21:27:49.129Z,20.01
2022-10-01T21:30:18.715Z,19.99
2022-10-01T21:33:03.802Z,19.98
2022-10-01T21:35:39.642Z,19.95
2022-10-01T21:38:06.182Z,19.94
2022-10-01T21:41:13.793Z,19.91
2022-10-01T21:43:49.515Z,19.82
2022-10-01T21:46:24.906Z,19.87
2022-10-01T21:49:17.054Z,19.82
2022-10-01T21:51:56.199Z,19.77
2022-10-01T21:54:41.169Z,19.75
2022-10-01T21:57:48.334Z,19.73
2022-10-01T22:00:21.621Z,19.73
2022-10-01T22:03:19.768Z,19.71
2022-10-01T22:06:14.993Z,19.68
2022-10-01T22:08:55.004Z,19.63
2022-10-01T22:11:26.521Z,19.61
2022-10-01T22:13:57.799Z,19.60
2022-10-01T22:16:28.492Z,19.57
2022-10-01T22:19:05.468Z,19.58
2022-10-01T22:22:16.995Z,19.60
2022-10-01T22:24:48.982Z,19.60
2022-10-01T22:27:21.984Z,19.57
2022-10-01T22:29:59.794Z,19.56
2022-10-01T22:32:33.194Z,19.51
2022-10-01T22:35:06.898Z,19.50
2022-10-01T22:37:51.558Z,19.46
2022-10-01T22:40:25.890Z,19.49
2022-10-01T22:43:05.042Z,19.45
2022-10-01T22:46:01.661Z,19.43
2022-10-01T22:49:04.322Z,19.43
2022-10-01T22:52:15.709Z,19.41
2022-10-01T22:55:14.282Z,19.34
2022-10-01T22:57:48.218Z,19.27
2022-10-01T23:00:15.651Z,19.23
2022-10-01T23:02:55.029Z,19.22
2022-10-01T23:05:36.542Z,19.24
2022-10-01T23:08:17.548Z,19.22
2022-10-01T23:10:56.347Z,19.19
2022-10-01T23:13:35.913Z,19.18
2022-10-01T23:16:14.357Z,19.18
2022-10-01T23:18:55.988Z,19.15
2022-10-01T23:21:43.162Z,19.12
2022-10-01T23:24:13.828Z,19.11
2022-10-01T23:27:14.783Z,19.08
2022-10-01T23:29:50.469Z,19.09
2022-10-01T23:32:56.624Z,19.05
2022-10-01T23:35:34.883Z,19.03
2022-10-01T23:38:32.027Z,18.99
2022-10-01T23:41:08.807Z,18.98
2022-10-01T23:43:46.867Z,18.94
2022-10-01T23:46:27.518Z,18.89
2022-10-01T23:49:28.486Z,18.85
2022-10-01T23:52:19.131Z,18.84
2022-10-01T23:54:56.579Z,18.84
2022-10-01T23:57:31.306Z,18.85
